Decoded Metar for OIYY (YAZD in IRAN) (IATA:AZD) | Meteo·Mobile Aviation Weather
aviador You're here:

OIYY Decoded Metar

YAZD in IRAN
Report Time2018-12-13 03:30:00
UTC Time2018-12-13 03:49:00
Flight Rules vfr VFR
Wind160° at 06 kt
W.Decomp.*RWY 13: 5.3 kt HW 2.8 kt RCW
W.Rank160° ranks 20
Current wind is above 160° avg. (5.0)
Visibility9999 m
Phenomena:N/A
Clouds:N/A
Expected CloudBase > 7,200 ft AGL from Temp-Dew spread
CeilingNone
Temp04°C (ISA -3)
Dew Point-14°C (26% RH)
AAT-1.5°C
QNH1022 hPa
Density Alt3,435 ft
Elevation4,055 ft
Report Wrong Elevation
Raw Report
OIYY 130330Z 16006KT CAVOK 04/M14 Q1022=

Extra information for OIYY:More info

Metar Taf Metar & Taf Last 4 Metars F.Rules Stats Wind Profile Meteogram Temp Stats Airport Information Weather charts Add Link Nearby VenuesMetar ALERT Operation Metar Decoded Social comments